Qurghonteppa International Airport
UTDT : now visible

Airfield :











YOU CAN JOIN US ON...

 
LOGIN :

Register | Disclaimer

   EN    FR    IT 

 









Legend :    VFR   Marginal VFR   IFR   Intensive IFR   Very Intensive IFR
Visi :
Ceiling :
>= 8 km
>= 3000ft
5 to 8 km
1000 to 3000 ft
1500m to 5 km
500 to 1000 ft
800 to 1500m
200 to 500 ft
< 800m
< 200 ft
Symbols :   Thunderstorms  Fog  Heavy snow  Heavy precipitations  Wind > 20 kt






- Airport Elevation : 1473 ft
- IATA code : KQT


UTDT - Qurghonteppa International

CURRENT METAR :
  • 050730Z 20003MPS 160V250 9999 FEW130 39/10 Q1006 R35/CLRD70 RMK QFE716/0954

EXPIRED METARs :
  • 050700Z 20003MPS 140V250 9999 FEW130 38/09 Q1007 R35/CLRD70 RMK QFE716/0955
  • 050630Z 23003MPS 170V310 9999 FEW130 37/12 Q1007 R35/CLRD70 RMK QFE716/0955
  • 050600Z 22003MPS 180V260 9999 FEW130 36/11 Q1007 R35/CLRD70 RMK QFE716/0955
  • 050530Z 19002MPS 120V230 9999 NSC 37/09 Q1007 R35/CLRD70 RMK QFE716/0955
  • 050500Z 21002MPS 9999 ///170 36/11 Q1007 R35/CLRD70 RMK QFE716/0955

TAF TAF UTDT
Valid from the 05 at 07:00 until the 05 at 16:00 UTC


050600Z 0507/0516 VRB02MPS 6000 FEW060CB SCT100
UTDD FIR / Asia



MET'MAP, your aeronautical weather chart ! - Copyright ORBIFLY December 2007 - Disclaimer

ORBIFLY MET'MAP TEAM :

Programming & Development : Alexandra Zaïnal
Concept & original design : Baudouin d'Aumeries
Assistance for programming : Marc-Olivier Méhu
Technical & hardware support : Manuel Goepfert

Contact : metmap@orbifly.com




SOURCES & CREDITS :

   NOAA       Earth
Advisory